createdAt,value
2018-08-14T00:02:15.708Z,5.40
2018-08-14T00:04:47.896Z,5.93
2018-08-14T00:07:20.445Z,6.20
2018-08-14T00:09:52.339Z,5.73
2018-08-14T00:12:24.289Z,5.60
2018-08-14T00:14:56.018Z,5.40
2018-08-14T00:17:28.467Z,5.40
2018-08-14T00:20:00.531Z,5.57
2018-08-14T00:22:33.501Z,5.67
2018-08-14T00:25:06.322Z,5.63
2018-08-14T00:27:39.166Z,6.03
2018-08-14T00:30:17.881Z,5.50
2018-08-14T00:32:50.056Z,5.23
2018-08-14T00:35:23.076Z,5.80
2018-08-14T00:37:55.275Z,5.57
2018-08-14T00:40:29.360Z,5.70
2018-08-14T00:43:03.202Z,5.53
2018-08-14T00:45:35.555Z,5.63
2018-08-14T00:48:08.690Z,5.60
2018-08-14T00:50:40.666Z,5.47
2018-08-14T00:53:13.142Z,5.53
2018-08-14T00:55:45.126Z,5.30
2018-08-14T00:58:17.158Z,5.53
2018-08-14T01:00:49.065Z,5.50
2018-08-14T01:03:20.927Z,6.30
2018-08-14T01:05:53.290Z,5.57
2018-08-14T01:08:25.619Z,5.47
2018-08-14T01:10:57.983Z,5.70
2018-08-14T01:13:31.392Z,5.43
2018-08-14T01:16:04.167Z,5.57
2018-08-14T01:18:36.328Z,5.27
2018-08-14T01:21:08.263Z,5.40
2018-08-14T01:23:40.635Z,5.50
2018-08-14T01:26:12.606Z,6.50
2018-08-14T01:28:46.455Z,5.77
2018-08-14T01:31:18.741Z,5.70
2018-08-14T01:33:51.518Z,5.83
2018-08-14T01:36:23.395Z,5.87
2018-08-14T01:38:57.131Z,5.60
2018-08-14T01:41:29.071Z,5.80
2018-08-14T01:44:00.969Z,5.63
2018-08-14T01:46:32.910Z,6.10
2018-08-14T01:49:05.250Z,5.80
2018-08-14T01:51:37.204Z,5.10
2018-08-14T01:54:09.993Z,5.63
2018-08-14T01:56:41.753Z,5.50
2018-08-14T01:59:14.738Z,5.43
2018-08-14T02:01:47.126Z,6.27
2018-08-14T02:04:18.987Z,5.40
2018-08-14T02:06:50.916Z,5.23
2018-08-14T02:09:22.647Z,5.60
2018-08-14T02:11:54.753Z,5.83
2018-08-14T02:14:26.756Z,5.77
2018-08-14T02:16:59.022Z,5.63
2018-08-14T02:19:30.983Z,5.80
2018-08-14T02:22:03.019Z,5.70
2018-08-14T02:24:34.928Z,6.00
2018-08-14T02:27:07.233Z,5.37
2018-08-14T02:29:39.547Z,5.97
2018-08-14T02:32:11.321Z,6.10
2018-08-14T02:34:43.053Z,5.73
2018-08-14T02:37:14.695Z,6.00
2018-08-14T02:39:46.974Z,5.80
2018-08-14T02:42:18.790Z,5.60
2018-08-14T02:44:50.564Z,6.10
2018-08-14T02:47:22.484Z,5.80
2018-08-14T02:49:54.384Z,5.40
2018-08-14T02:52:26.737Z,5.90
2018-08-14T02:54:58.946Z,6.30
2018-08-14T02:57:31.178Z,6.10
2018-08-14T03:00:03.504Z,6.03
2018-08-14T03:02:35.919Z,5.93
2018-08-14T03:05:08.016Z,5.70
2018-08-14T03:07:39.919Z,5.67
2018-08-14T03:10:13.169Z,6.20
2018-08-14T03:12:45.476Z,6.23
2018-08-14T03:15:21.564Z,6.10
2018-08-14T03:17:55.935Z,6.10
2018-08-14T03:20:27.995Z,6.10
2018-08-14T03:23:00.063Z,6.40
2018-08-14T03:25:32.415Z,6.20
2018-08-14T03:28:04.347Z,6.33
2018-08-14T03:30:36.594Z,6.07
2018-08-14T03:33:09.105Z,6.70
2018-08-14T03:35:40.962Z,6.00
2018-08-14T03:38:13.333Z,6.23
2018-08-14T03:40:45.394Z,6.10
2018-08-14T03:43:18.542Z,6.40
2018-08-14T03:45:50.523Z,6.20
2018-08-14T03:48:22.584Z,6.37
2018-08-14T03:50:54.677Z,6.40
2018-08-14T03:53:26.789Z,6.40
2018-08-14T03:55:58.834Z,6.00
2018-08-14T03:58:32.338Z,6.20
2018-08-14T04:01:04.209Z,6.57
2018-08-14T04:03:36.131Z,6.17
2018-08-14T04:06:08.042Z,5.73
2018-08-14T04:08:40.050Z,6.43
2018-08-14T04:11:12.454Z,6.63
2018-08-14T04:13:46.773Z,6.77
2018-08-14T04:16:18.744Z,6.47
2018-08-14T04:18:52.277Z,6.50
2018-08-14T04:21:25.109Z,6.47
2018-08-14T04:23:57.597Z,6.70
2018-08-14T04:26:30.250Z,5.53
2018-08-14T04:29:03.102Z,5.97
2018-08-14T04:31:36.107Z,6.30
2018-08-14T04:34:08.461Z,6.27
2018-08-14T04:36:41.429Z,6.87
2018-08-14T04:39:13.477Z,6.53
2018-08-14T04:41:45.661Z,6.90
2018-08-14T04:44:18.638Z,5.90
2018-08-14T04:46:51.467Z,6.67
2018-08-14T04:49:23.866Z,6.47
2018-08-14T04:51:55.920Z,7.10
2018-08-14T04:54:27.947Z,6.43
2018-08-14T04:56:59.930Z,6.60
2018-08-14T04:59:31.945Z,6.07
2018-08-14T05:02:04.713Z,6.57
2018-08-14T05:04:36.914Z,6.30
2018-08-14T05:07:08.994Z,5.43
2018-08-14T05:09:41.270Z,6.53
2018-08-14T05:12:14.516Z,6.90
2018-08-14T05:14:46.808Z,6.87
2018-08-14T05:17:18.955Z,8.43
2018-08-14T05:19:51.397Z,6.60
2018-08-14T05:22:23.744Z,7.00
2018-08-14T05:24:55.883Z,7.27
2018-08-14T05:27:28.213Z,8.10
2018-08-14T05:30:00.477Z,7.63
2018-08-14T05:32:32.777Z,7.77
2018-08-14T05:35:06.072Z,8.30
2018-08-14T05:37:38.432Z,7.60
2018-08-14T05:40:10.711Z,7.97
2018-08-14T05:42:44.180Z,8.47
2018-08-14T05:45:16.997Z,6.77
2018-08-14T05:47:49.115Z,7.33
2018-08-14T05:50:21.440Z,8.53
2018-08-14T05:52:53.365Z,7.70
2018-08-14T05:55:25.390Z,8.17
2018-08-14T05:57:57.468Z,8.13
2018-08-14T06:00:29.821Z,8.07
2018-08-14T06:03:02.092Z,7.67
2018-08-14T06:05:33.879Z,7.10
2018-08-14T06:08:05.558Z,6.43
2018-08-14T06:10:38.181Z,7.87
2018-08-14T06:13:11.508Z,7.53
2018-08-14T06:15:43.656Z,8.10
2018-08-14T06:18:15.564Z,7.90
2018-08-14T06:20:47.734Z,6.50
2018-08-14T06:23:19.899Z,6.47
2018-08-14T06:25:51.841Z,8.20
2018-08-14T06:28:23.935Z,7.23
2018-08-14T06:30:55.953Z,8.17
2018-08-14T06:33:29.041Z,8.03
2018-08-14T06:36:01.199Z,8.07
2018-08-14T06:38:33.334Z,7.53
2018-08-14T06:41:06.464Z,6.43
2018-08-14T06:43:38.634Z,6.53
2018-08-14T06:46:10.932Z,5.97
2018-08-14T06:48:44.355Z,6.03
2018-08-14T06:51:16.793Z,7.53
2018-08-14T06:53:48.877Z,7.67
2018-08-14T06:56:20.999Z,5.87
2018-08-14T06:58:53.731Z,6.07
2018-08-14T07:01:26.077Z,5.73
2018-08-14T07:03:58.275Z,6.77
2018-08-14T07:06:30.598Z,5.90
2018-08-14T07:09:02.913Z,6.33
2018-08-14T07:11:35.410Z,6.53
2018-08-14T07:14:09.922Z,6.43
2018-08-14T07:16:42.144Z,6.23
2018-08-14T07:19:14.844Z,5.90
2018-08-14T07:21:47.001Z,6.23
2018-08-14T07:24:19.167Z,6.47
2018-08-14T07:26:51.718Z,6.30
2018-08-14T07:29:24.371Z,5.73
2018-08-14T07:31:56.965Z,6.13
2018-08-14T07:34:29.039Z,6.30
2018-08-14T07:37:01.012Z,6.43
2018-08-14T07:39:33.392Z,6.07
2018-08-14T07:42:05.638Z,6.37
2018-08-14T07:44:38.831Z,6.97
2018-08-14T07:47:11.019Z,6.83
2018-08-14T07:49:43.059Z,6.63
2018-08-14T07:52:16.525Z,6.70
2018-08-14T07:54:49.818Z,7.23
2018-08-14T07:57:22.957Z,7.00
2018-08-14T07:59:55.557Z,6.60
2018-08-14T08:02:27.540Z,6.63
2018-08-14T08:05:00.135Z,7.00
2018-08-14T08:07:32.371Z,6.97
2018-08-14T08:10:05.243Z,6.87
2018-08-14T08:12:37.750Z,7.00
2018-08-14T08:15:12.958Z,6.87
2018-08-14T08:17:46.829Z,6.57
2018-08-14T08:20:32.786Z,7.70
2018-08-14T08:23:06.414Z,5.83
2018-08-14T08:25:39.012Z,6.37
2018-08-14T08:28:11.127Z,6.90
2018-08-14T08:30:43.387Z,7.00
2018-08-14T08:33:15.510Z,6.60
2018-08-14T08:35:47.610Z,6.60
2018-08-14T08:38:20.030Z,7.67
2018-08-14T08:40:52.689Z,6.70
2018-08-14T08:43:24.917Z,7.70
2018-08-14T08:45:57.164Z,7.77
2018-08-14T08:48:29.647Z,8.43
2018-08-14T08:51:02.049Z,7.73
2018-08-14T08:53:34.103Z,7.17
2018-08-14T08:56:06.616Z,8.20
2018-08-14T08:58:38.763Z,7.67
2018-08-14T09:01:11.008Z,8.33
2018-08-14T09:03:43.383Z,7.70
2018-08-14T09:06:15.468Z,8.10
2018-08-14T09:08:47.744Z,8.60
2018-08-14T09:11:19.906Z,8.07
2018-08-14T09:13:52.798Z,7.93
2018-08-14T09:16:24.788Z,8.17
2018-08-14T09:18:56.918Z,8.03
2018-08-14T09:21:29.258Z,7.73
2018-08-14T09:24:01.998Z,7.20
2018-08-14T09:26:34.288Z,7.63
2018-08-14T09:29:06.505Z,7.73
2018-08-14T09:31:38.812Z,7.27
2018-08-14T09:34:10.846Z,7.13
2018-08-14T09:36:43.330Z,7.03
2018-08-14T09:39:15.365Z,6.80
2018-08-14T09:41:47.802Z,7.47
2018-08-14T09:44:20.424Z,7.23
2018-08-14T09:46:52.814Z,7.23
2018-08-14T09:49:24.778Z,6.27
2018-08-14T09:51:56.819Z,5.97
2018-08-14T09:54:29.672Z,6.37
2018-08-14T09:57:02.027Z,6.30
2018-08-14T09:59:34.184Z,6.13
2018-08-14T10:02:11.642Z,7.27
2018-08-14T10:04:49.069Z,6.47
2018-08-14T10:07:25.620Z,5.80
2018-08-14T10:09:59.037Z,5.47
2018-08-14T10:12:31.505Z,5.80
2018-08-14T10:15:04.013Z,5.90
2018-08-14T10:17:36.351Z,5.87
2018-08-14T10:20:11.741Z,6.13
2018-08-14T10:22:44.060Z,6.13
2018-08-14T10:25:16.557Z,5.53
2018-08-14T10:27:48.759Z,7.13
2018-08-14T10:30:21.302Z,6.10
2018-08-14T10:32:54.536Z,6.70
2018-08-14T10:35:28.534Z,6.13
2018-08-14T10:38:01.043Z,5.70
2018-08-14T10:40:34.108Z,6.53
2018-08-14T10:43:06.950Z,6.40
2018-08-14T10:45:39.415Z,6.17
2018-08-14T10:48:11.832Z,5.37
2018-08-14T10:50:45.079Z,5.43
2018-08-14T10:53:17.396Z,6.20
2018-08-14T10:55:49.610Z,6.33
2018-08-14T10:58:21.933Z,5.53
2018-08-14T11:00:54.072Z,5.70
2018-08-14T11:03:26.299Z,5.83
2018-08-14T11:05:58.810Z,5.50
2018-08-14T11:08:31.792Z,5.73
2018-08-14T11:11:08.109Z,5.30
2018-08-14T11:13:40.386Z,5.47
2018-08-14T11:16:12.661Z,5.50
2018-08-14T11:18:46.118Z,6.00
2018-08-14T11:21:18.225Z,5.23
2018-08-14T11:23:50.861Z,5.93
2018-08-14T11:26:23.559Z,5.77
2018-08-14T11:28:56.749Z,5.77
2018-08-14T11:31:29.407Z,5.40
2018-08-14T11:34:02.059Z,5.40
2018-08-14T11:36:35.257Z,5.33
2018-08-14T11:39:11.185Z,5.53
2018-08-14T11:41:43.089Z,5.93
2018-08-14T11:44:15.106Z,5.87
2018-08-14T11:46:47.721Z,5.77
2018-08-14T11:49:21.465Z,6.43
2018-08-14T11:51:53.461Z,5.73
2018-08-14T11:54:25.558Z,5.67
2018-08-14T11:56:57.812Z,6.17
2018-08-14T11:59:29.984Z,5.50
2018-08-14T12:02:02.026Z,5.93
2018-08-14T12:04:33.916Z,6.23
2018-08-14T12:07:06.424Z,6.87
2018-08-14T12:09:39.626Z,7.13
2018-08-14T12:12:12.612Z,6.80
2018-08-14T12:14:46.293Z,6.17
2018-08-14T12:17:18.465Z,7.40
2018-08-14T12:19:50.864Z,6.67
2018-08-14T12:22:23.338Z,7.00
2018-08-14T12:24:56.183Z,8.20
2018-08-14T12:27:28.619Z,7.53
2018-08-14T12:30:02.066Z,7.43
2018-08-14T12:32:34.523Z,8.10
2018-08-14T12:35:08.370Z,6.97
2018-08-14T12:37:41.783Z,7.27
2018-08-14T12:40:15.159Z,7.13
2018-08-14T12:42:47.409Z,6.93
2018-08-14T12:45:22.860Z,7.70
2018-08-14T12:47:55.646Z,8.00
2018-08-14T12:50:27.996Z,6.33
2018-08-14T12:53:00.335Z,7.33
2018-08-14T12:55:32.245Z,6.37
2018-08-14T12:58:04.650Z,6.57
2018-08-14T13:00:37.046Z,6.63
2018-08-14T13:03:09.512Z,7.80
2018-08-14T13:05:41.600Z,7.30
2018-08-14T13:08:14.020Z,6.67
2018-08-14T13:10:46.261Z,6.47
2018-08-14T13:13:18.587Z,6.23
2018-08-14T13:15:50.863Z,5.67
2018-08-14T13:18:23.270Z,6.17
2018-08-14T13:20:55.515Z,5.67
2018-08-14T13:23:27.698Z,6.13
2018-08-14T13:25:59.783Z,6.80
2018-08-14T13:28:32.037Z,6.17
2018-08-14T13:31:04.478Z,7.30
2018-08-14T13:33:36.610Z,7.10
2018-08-14T13:36:09.319Z,6.47
2018-08-14T13:38:41.406Z,5.77
2018-08-14T13:41:14.043Z,6.60
2018-08-14T13:43:46.343Z,6.23
2018-08-14T13:46:18.659Z,6.93
2018-08-14T13:48:50.835Z,6.77
2018-08-14T13:51:23.452Z,5.83
2018-08-14T13:53:55.974Z,5.83
2018-08-14T13:56:28.942Z,5.47
2018-08-14T13:59:02.254Z,5.40
2018-08-14T14:01:34.931Z,5.60
2018-08-14T14:04:07.433Z,6.57
2018-08-14T14:06:39.634Z,5.40
2018-08-14T14:09:12.981Z,6.37
2018-08-14T14:11:45.423Z,5.30
2018-08-14T14:14:17.784Z,5.87
2018-08-14T14:16:50.085Z,5.73
2018-08-14T14:19:22.340Z,5.80
2018-08-14T14:21:54.545Z,5.47
2018-08-14T14:24:27.014Z,5.67
2018-08-14T14:26:59.432Z,5.20
2018-08-14T14:29:31.967Z,5.50
2018-08-14T14:32:03.877Z,5.43
2018-08-14T14:34:35.876Z,5.70
2018-08-14T14:37:08.150Z,5.43
2018-08-14T14:39:41.680Z,6.10
2018-08-14T14:42:13.979Z,5.77
2018-08-14T14:44:46.228Z,4.97
2018-08-14T14:47:18.664Z,5.10
2018-08-14T14:49:50.850Z,5.60
2018-08-14T14:52:23.228Z,5.10
2018-08-14T14:54:55.597Z,5.33
2018-08-14T14:57:27.667Z,5.17
2018-08-14T15:00:01.063Z,5.67
2018-08-14T15:02:33.186Z,5.37
2018-08-14T15:05:05.858Z,5.17
2018-08-14T15:07:38.509Z,5.27
2018-08-14T15:10:11.148Z,5.27
2018-08-14T15:12:43.661Z,5.50
2018-08-14T15:15:16.282Z,5.60
2018-08-14T15:17:48.862Z,5.37
2018-08-14T15:20:23.950Z,5.60
2018-08-14T15:22:58.968Z,5.03
2018-08-14T15:25:32.569Z,4.67
2018-08-14T15:29:11.327Z,5.10
2018-08-14T15:31:53.639Z,5.30
2018-08-14T15:34:28.382Z,4.77
2018-08-14T15:37:05.765Z,5.10
2018-08-14T15:39:38.355Z,4.70
2018-08-14T15:42:10.636Z,4.70
2018-08-14T15:44:43.408Z,5.07
2018-08-14T15:47:22.099Z,5.13
2018-08-14T15:49:55.256Z,5.07
2018-08-14T15:52:30.229Z,5.10
2018-08-14T15:55:03.769Z,5.03
2018-08-14T15:57:36.271Z,5.27
2018-08-14T16:00:08.628Z,4.93
2018-08-14T16:02:41.137Z,4.93
2018-08-14T16:05:14.379Z,4.70
2018-08-14T16:07:46.441Z,5.23
2018-08-14T16:10:18.566Z,5.27
2018-08-14T16:12:50.756Z,5.60
2018-08-14T16:15:23.709Z,5.17
2018-08-14T16:17:55.777Z,5.00
2018-08-14T16:20:28.481Z,5.60
2018-08-14T16:23:01.241Z,5.70
2018-08-14T16:25:33.551Z,5.30
2018-08-14T16:28:05.896Z,5.50
2018-08-14T16:30:38.205Z,5.47
2018-08-14T16:33:10.507Z,5.20
2018-08-14T16:35:42.682Z,5.63
2018-08-14T16:38:15.238Z,5.83
2018-08-14T16:40:48.289Z,5.53
2018-08-14T16:43:20.410Z,6.10
2018-08-14T16:45:52.567Z,7.40
2018-08-14T16:48:25.201Z,5.60
2018-08-14T16:50:57.776Z,5.93
2018-08-14T16:53:30.082Z,6.27
2018-08-14T16:56:02.338Z,5.67
2018-08-14T16:58:34.552Z,5.37
2018-08-14T17:01:06.982Z,5.67
2018-08-14T17:03:39.106Z,5.77
2018-08-14T17:06:11.294Z,5.20
2018-08-14T17:08:43.563Z,5.80
2018-08-14T17:11:15.618Z,5.37
2018-08-14T17:13:47.560Z,5.90
2018-08-14T17:16:20.346Z,5.20
2018-08-14T17:18:53.173Z,6.20
2018-08-14T17:21:22.615Z,5.73
2018-08-14T17:23:54.719Z,5.67
2018-08-14T17:26:26.874Z,5.63
2018-08-14T17:28:59.887Z,6.07
2018-08-14T17:31:33.116Z,6.20
2018-08-14T17:34:07.116Z,6.03
2018-08-14T17:36:39.327Z,7.17
2018-08-14T17:39:12.823Z,6.90
2018-08-14T17:41:45.262Z,5.93
2018-08-14T17:44:17.213Z,5.07
2018-08-14T17:46:49.542Z,5.63
2018-08-14T17:52:30.066Z,5.40
2018-08-14T17:55:04.552Z,5.20
2018-08-14T17:57:37.417Z,6.00
2018-08-14T18:00:24.212Z,5.83
2018-08-14T18:03:07.234Z,6.03
2018-08-14T18:05:40.519Z,6.33
2018-08-14T18:08:12.872Z,6.13
2018-08-14T18:10:47.946Z,6.00
2018-08-14T18:13:22.459Z,5.60
2018-08-14T18:15:55.235Z,6.00
2018-08-14T18:18:28.496Z,6.23
2018-08-14T18:21:00.816Z,6.33
2018-08-14T18:23:33.120Z,7.50
2018-08-14T18:26:05.648Z,7.00
2018-08-14T18:28:40.859Z,7.40
2018-08-14T18:31:13.875Z,7.17
2018-08-14T18:33:46.449Z,6.80
2018-08-14T18:36:18.933Z,6.00
2018-08-14T18:38:51.355Z,6.10
2018-08-14T18:41:24.649Z,6.07
2018-08-14T18:43:57.094Z,6.03
2018-08-14T18:46:30.622Z,6.50
2018-08-14T18:49:02.940Z,6.40
2018-08-14T18:51:35.118Z,5.67
2018-08-14T18:54:09.039Z,5.60
2018-08-14T18:56:42.046Z,6.43
2018-08-14T18:59:14.987Z,6.20
2018-08-14T19:01:49.836Z,6.33
2018-08-14T19:04:22.770Z,6.27
2018-08-14T19:06:55.053Z,6.10
2018-08-14T19:09:27.769Z,5.90
2018-08-14T19:12:01.741Z,5.87
2018-08-14T19:14:35.691Z,5.97
2018-08-14T19:17:08.508Z,6.27
2018-08-14T19:19:40.787Z,5.90
2018-08-14T19:22:20.788Z,6.00
2018-08-14T19:24:54.256Z,5.80
2018-08-14T19:27:30.302Z,6.37
2018-08-14T19:30:03.480Z,5.57
2018-08-14T19:32:37.405Z,5.90
2018-08-14T19:35:11.895Z,6.47
2018-08-14T19:37:45.427Z,8.37
2018-08-14T19:40:23.608Z,8.37
2018-08-14T19:42:56.472Z,6.60
2018-08-14T19:45:30.205Z,6.27
2018-08-14T19:48:03.229Z,6.53
2018-08-14T19:50:36.429Z,6.83
2018-08-14T19:53:10.644Z,6.73
2018-08-14T19:55:44.541Z,6.37
2018-08-14T19:58:16.859Z,6.67
2018-08-14T20:00:50.421Z,6.63
2018-08-14T20:03:22.911Z,7.13
2018-08-14T20:05:55.192Z,6.80
2018-08-14T20:08:27.918Z,6.40
2018-08-14T20:11:01.800Z,7.07
2018-08-14T20:13:34.196Z,7.10
2018-08-14T20:16:14.055Z,6.77
2018-08-14T20:18:47.300Z,7.03
2018-08-14T20:21:25.078Z,7.30
2018-08-14T20:23:59.521Z,7.10
2018-08-14T20:26:34.227Z,6.90
2018-08-14T20:29:08.008Z,7.00
2018-08-14T20:31:43.252Z,7.30
2018-08-14T20:34:17.458Z,7.57
2018-08-14T20:36:54.488Z,8.00
2018-08-14T20:39:29.102Z,6.87
2018-08-14T20:42:07.229Z,7.80
2018-08-14T20:44:40.179Z,7.53
2018-08-14T20:47:12.905Z,8.10
2018-08-14T20:49:48.143Z,7.83
2018-08-14T20:52:23.664Z,8.60
2018-08-14T20:54:56.857Z,8.13
2018-08-14T20:57:29.871Z,7.10
2018-08-14T21:00:03.819Z,7.20
2018-08-14T21:02:37.544Z,7.63
2018-08-14T21:05:11.481Z,7.67
2018-08-14T21:07:45.608Z,7.63
2018-08-14T21:10:19.771Z,8.20
2018-08-14T21:12:57.235Z,7.90
2018-08-14T21:15:37.636Z,8.27
2018-08-14T21:18:12.052Z,7.67
2018-08-14T21:20:47.548Z,7.63
2018-08-14T21:23:22.581Z,7.43
2018-08-14T21:25:55.702Z,7.80
2018-08-14T21:28:36.921Z,7.73
2018-08-14T21:31:11.955Z,7.67
2018-08-14T21:33:50.319Z,7.80
2018-08-14T21:36:24.379Z,7.83
2018-08-14T21:38:57.804Z,7.27
2018-08-14T21:41:32.089Z,7.50
2018-08-14T21:44:04.553Z,8.10
2018-08-14T21:46:36.942Z,8.50
2018-08-14T21:49:10.110Z,8.07
2018-08-14T21:51:42.798Z,7.77
2018-08-14T21:54:16.313Z,7.47
2018-08-14T21:56:48.778Z,7.90
2018-08-14T21:59:21.250Z,8.07
2018-08-14T22:01:54.078Z,7.80
2018-08-14T22:04:27.630Z,8.00
2018-08-14T22:07:00.067Z,7.27
2018-08-14T22:09:32.991Z,8.80
2018-08-14T22:12:06.073Z,7.70
2018-08-14T22:14:39.400Z,7.90
2018-08-14T22:17:12.095Z,8.03
2018-08-14T22:19:44.183Z,7.87
2018-08-14T22:22:17.688Z,7.53
2018-08-14T22:24:51.321Z,6.90
2018-08-14T22:27:23.357Z,7.30
2018-08-14T22:29:56.866Z,7.43
2018-08-14T22:32:29.424Z,7.73
2018-08-14T22:35:01.670Z,7.87
2018-08-14T22:37:33.820Z,7.93
2018-08-14T22:40:06.163Z,7.53
2018-08-14T22:42:39.101Z,7.67
2018-08-14T22:45:11.917Z,7.60
2018-08-14T22:47:44.092Z,7.57
2018-08-14T22:50:16.244Z,7.77
2018-08-14T22:52:48.545Z,7.90
2018-08-14T22:55:21.021Z,7.90
2018-08-14T22:57:53.836Z,7.67
2018-08-14T23:00:25.649Z,7.60
2018-08-14T23:02:57.633Z,7.83
2018-08-14T23:05:29.646Z,9.80
2018-08-14T23:08:01.624Z,8.00
2018-08-14T23:10:33.879Z,7.50
2018-08-14T23:13:06.459Z,7.30
2018-08-14T23:15:38.584Z,7.83
2018-08-14T23:18:10.672Z,7.70
2018-08-14T23:20:42.430Z,6.80
2018-08-14T23:23:14.254Z,7.73
2018-08-14T23:25:47.406Z,6.67
2018-08-14T23:28:19.888Z,7.33
2018-08-14T23:30:52.246Z,7.40
2018-08-14T23:33:24.456Z,7.57
2018-08-14T23:35:56.892Z,7.33
2018-08-14T23:38:29.202Z,6.93
2018-08-14T23:41:02.118Z,7.60
2018-08-14T23:43:34.331Z,7.10
2018-08-14T23:46:06.593Z,7.10
2018-08-14T23:48:38.612Z,7.00
2018-08-14T23:51:10.830Z,7.83
2018-08-14T23:53:42.822Z,7.27
2018-08-14T23:56:15.513Z,7.47
2018-08-14T23:58:48.820Z,7.10
